createdAt,value
2022-12-26T00:00:12.077Z,102315.06
2022-12-26T00:05:10.209Z,102323.69
2022-12-26T00:10:08.764Z,102331.38
2022-12-26T00:15:06.926Z,102324.44
2022-12-26T00:20:08.127Z,102336.47
2022-12-26T00:25:06.476Z,102335.56
2022-12-26T00:30:04.760Z,102339.75
2022-12-26T00:35:02.813Z,102331.72
2022-12-26T00:40:02.009Z,102327.22
2022-12-26T00:44:59.941Z,102335.72
2022-12-26T00:50:12.517Z,102350.16
2022-12-26T00:55:13.751Z,102349.22
2022-12-26T01:00:19.712Z,102351.81
2022-12-26T01:05:17.710Z,102354.34
2022-12-26T01:10:17.069Z,102342.28
2022-12-26T01:15:15.125Z,102330.25
2022-12-26T01:20:13.183Z,102325.97
2022-12-26T01:25:11.859Z,102324.88
2022-12-26T01:30:11.772Z,102318.63
2022-12-26T01:35:10.031Z,102307.34
2022-12-26T01:40:08.505Z,102305.78
2022-12-26T01:45:08.633Z,102315.97
2022-12-26T01:50:15.610Z,102329.78
2022-12-26T01:55:15.711Z,102346.03
2022-12-26T02:00:14.229Z,102351.34
2022-12-26T02:05:30.814Z,102345.34
2022-12-26T02:10:30.072Z,102333.13
2022-12-26T02:15:28.414Z,102324.38
2022-12-26T02:20:28.528Z,102327.06
2022-12-26T02:25:40.197Z,102321.13
2022-12-26T02:30:42.964Z,102316.81
2022-12-26T02:35:48.288Z,102304.00
2022-12-26T02:40:52.455Z,102317.72
2022-12-26T02:46:13.348Z,102319.53
2022-12-26T02:51:44.749Z,102324.56
2022-12-26T02:57:01.836Z,102318.50
2022-12-26T03:02:19.897Z,102307.25
2022-12-26T03:07:39.244Z,102309.72
2022-12-26T03:12:57.533Z,102307.13
2022-12-26T03:17:59.249Z,102307.09
2022-12-26T03:23:01.579Z,102318.13
2022-12-26T03:27:59.423Z,102326.66
2022-12-26T03:32:59.247Z,102334.25
2022-12-26T03:37:58.032Z,102334.22
2022-12-26T03:43:18.194Z,102331.59
2022-12-26T03:48:38.545Z,102323.75
2022-12-26T03:53:56.117Z,102326.34
2022-12-26T03:59:16.202Z,102323.72
2022-12-26T04:04:34.110Z,102328.81
2022-12-26T04:10:04.688Z,102320.25
2022-12-26T04:15:22.658Z,102327.16
2022-12-26T04:20:26.003Z,102315.09
2022-12-26T04:25:48.475Z,102313.34
2022-12-26T04:31:09.146Z,102315.09
2022-12-26T04:36:28.752Z,102321.13
2022-12-26T04:41:45.536Z,102330.66
2022-12-26T04:46:45.066Z,102335.78
2022-12-26T04:51:44.279Z,102335.75
2022-12-26T04:56:42.116Z,102332.28
2022-12-26T05:01:53.841Z,102337.47
2022-12-26T05:07:10.734Z,102336.50
2022-12-26T05:12:10.448Z,102346.78
2022-12-26T05:17:25.988Z,102350.31
2022-12-26T05:22:43.721Z,102345.88
2022-12-26T05:28:01.345Z,102357.00
2022-12-26T05:33:16.941Z,102360.47
2022-12-26T05:38:16.146Z,102371.38
2022-12-26T05:43:13.945Z,102356.91
2022-12-26T05:48:14.289Z,102367.25
2022-12-26T05:53:12.501Z,102354.56
2022-12-26T05:58:11.704Z,102361.44
2022-12-26T06:03:09.646Z,102359.69
2022-12-26T06:08:07.591Z,102370.06
2022-12-26T06:13:05.416Z,102385.41
2022-12-26T06:18:04.674Z,102379.81
2022-12-26T06:23:02.514Z,102381.91
2022-12-26T06:28:00.429Z,102370.31
2022-12-26T06:32:58.320Z,102374.47
2022-12-26T06:37:57.517Z,102370.44
2022-12-26T06:42:55.352Z,102364.38
2022-12-26T06:47:53.889Z,102356.44
2022-12-26T06:52:51.686Z,102358.00
2022-12-26T06:57:52.504Z,102360.34
2022-12-26T07:02:51.520Z,102363.50
2022-12-26T07:07:51.597Z,102353.25
2022-12-26T07:12:50.837Z,102362.59
2022-12-26T07:17:48.642Z,102350.19
2022-12-26T07:22:46.485Z,102354.81
2022-12-26T07:27:44.414Z,102352.66
2022-12-26T07:32:43.656Z,102357.75
2022-12-26T07:37:41.519Z,102373.63
2022-12-26T07:42:40.781Z,102386.03
2022-12-26T07:47:38.638Z,102389.06
2022-12-26T07:52:37.885Z,102395.44
2022-12-26T07:57:48.450Z,102377.00
2022-12-26T08:02:48.562Z,102373.75
2022-12-26T08:07:49.232Z,102371.59
2022-12-26T08:12:47.080Z,102366.50
2022-12-26T08:17:45.031Z,102356.44
2022-12-26T08:22:42.895Z,102359.75
2022-12-26T08:27:42.333Z,102366.91
2022-12-26T08:32:42.578Z,102351.78
2022-12-26T08:37:43.980Z,102345.69
2022-12-26T08:42:56.158Z,102333.28
2022-12-26T08:48:03.075Z,102330.28
2022-12-26T08:53:00.879Z,102324.66
2022-12-26T08:58:00.257Z,102319.03
2022-12-26T09:02:58.721Z,102322.38
2022-12-26T09:07:56.731Z,102318.34
2022-12-26T09:12:54.631Z,102295.31
2022-12-26T09:17:54.138Z,102303.84
2022-12-26T09:22:52.012Z,102298.09
2022-12-26T09:27:55.594Z,102298.94
2022-12-26T09:32:58.146Z,102286.84
2022-12-26T09:37:56.113Z,102287.84
2022-12-26T09:43:07.297Z,102287.19
2022-12-26T09:48:12.895Z,102281.09
2022-12-26T09:53:14.227Z,102277.03
2022-12-26T09:58:16.276Z,102271.88
2022-12-26T10:03:15.581Z,102273.31
2022-12-26T10:08:23.489Z,102264.34
2022-12-26T10:13:26.884Z,102240.50
2022-12-26T10:18:36.137Z,102233.09
2022-12-26T10:23:34.754Z,102214.09
2022-12-26T10:28:35.562Z,102211.44
2022-12-26T10:33:38.320Z,102210.03
2022-12-26T10:38:39.961Z,102196.72
2022-12-26T10:43:42.905Z,102201.34
2022-12-26T10:48:42.223Z,102198.81
2022-12-26T10:53:42.819Z,102181.59
2022-12-26T10:58:41.169Z,102188.38
2022-12-26T11:03:54.693Z,102178.41
2022-12-26T11:08:54.772Z,102193.88
2022-12-26T11:14:01.321Z,102188.22
2022-12-26T11:19:00.522Z,102191.59
2022-12-26T11:24:15.527Z,102180.91
2022-12-26T11:29:15.637Z,102175.06
2022-12-26T11:34:18.433Z,102186.69
2022-12-26T11:39:22.154Z,102184.84
2022-12-26T11:44:23.850Z,102170.88
2022-12-26T11:49:28.696Z,102179.28
2022-12-26T11:54:28.345Z,102167.19
2022-12-26T11:59:27.699Z,102173.84
2022-12-26T12:04:25.789Z,102171.94
2022-12-26T12:09:29.729Z,102160.59
2022-12-26T12:14:35.825Z,102166.34
2022-12-26T12:19:39.936Z,102154.41
2022-12-26T12:24:43.917Z,102143.88
2022-12-26T12:29:51.504Z,102157.97
2022-12-26T12:35:02.084Z,102152.47
2022-12-26T12:40:02.157Z,102152.09
2022-12-26T12:45:06.995Z,102154.06
2022-12-26T12:50:11.144Z,102150.59
2022-12-26T12:55:26.988Z,102151.28
2022-12-26T13:00:28.222Z,102149.53
2022-12-26T13:05:31.833Z,102157.47
2022-12-26T13:10:33.196Z,102165.38
2022-12-26T13:15:34.960Z,102172.38
2022-12-26T13:20:38.970Z,102166.66
2022-12-26T13:25:39.013Z,102163.84
2022-12-26T13:30:39.100Z,102170.34
2022-12-26T13:35:53.949Z,102167.03
2022-12-26T13:40:55.179Z,102173.44
2022-12-26T13:45:57.393Z,102168.22
2022-12-26T13:50:56.764Z,102174.88
2022-12-26T13:55:55.967Z,102172.06
2022-12-26T14:00:57.488Z,102164.94
2022-12-26T14:06:00.659Z,102173.03
2022-12-26T14:11:04.420Z,102164.97
2022-12-26T14:16:06.918Z,102171.47
2022-12-26T14:21:18.380Z,102157.16
2022-12-26T14:26:22.459Z,102162.06
2022-12-26T14:31:26.470Z,102157.28
2022-12-26T14:36:34.218Z,102153.47
2022-12-26T14:42:12.982Z,102158.38
2022-12-26T14:47:12.461Z,102161.41
2022-12-26T14:52:34.743Z,102167.97
2022-12-26T14:57:43.885Z,102164.88
2022-12-26T15:02:44.585Z,102162.03
2022-12-26T15:08:00.120Z,102161.06
2022-12-26T15:13:15.645Z,102167.31
2022-12-26T15:18:28.287Z,102159.06
2022-12-26T15:23:37.385Z,102166.19
2022-12-26T15:28:58.353Z,102155.25
2022-12-26T15:34:00.417Z,102152.38
2022-12-26T15:39:02.952Z,102137.66
2022-12-26T15:44:08.486Z,102133.53
2022-12-26T15:49:21.139Z,102133.09
2022-12-26T15:54:26.502Z,102135.81
2022-12-26T15:59:38.887Z,102130.81
2022-12-26T16:04:40.078Z,102121.72
2022-12-26T16:09:45.586Z,102119.44
2022-12-26T16:14:44.111Z,102114.59
2022-12-26T16:19:42.910Z,102116.47
2022-12-26T16:24:43.767Z,102119.34
2022-12-26T16:29:45.871Z,102118.78
2022-12-26T16:34:46.263Z,102119.13
2022-12-26T16:39:45.528Z,102123.63
2022-12-26T16:44:45.630Z,102110.84
2022-12-26T16:49:47.150Z,102114.47
2022-12-26T16:54:46.348Z,102105.69
2022-12-26T16:59:48.508Z,102107.63
2022-12-26T17:04:55.507Z,102102.53
2022-12-26T17:10:00.146Z,102097.59
2022-12-26T17:14:59.681Z,102098.50
2022-12-26T17:19:59.163Z,102096.69
2022-12-26T17:25:12.022Z,102095.94
2022-12-26T17:30:28.353Z,102095.16
2022-12-26T17:35:27.380Z,102096.13
2022-12-26T17:40:28.136Z,102091.09
2022-12-26T17:45:28.566Z,102101.53
2022-12-26T17:50:30.525Z,102106.72
2022-12-26T17:55:28.579Z,102104.22
2022-12-26T18:00:28.853Z,102093.06
2022-12-26T18:05:26.813Z,102089.63
2022-12-26T18:10:26.103Z,102087.13
2022-12-26T18:15:24.756Z,102084.53
2022-12-26T18:20:25.021Z,102076.81
2022-12-26T18:25:24.695Z,102075.16
2022-12-26T18:30:24.115Z,102073.44
2022-12-26T18:35:22.552Z,102072.63
2022-12-26T18:40:30.697Z,102067.56
2022-12-26T18:45:28.777Z,102052.16
2022-12-26T18:50:27.393Z,102050.53
2022-12-26T18:55:25.924Z,102038.50
2022-12-26T19:00:25.408Z,102040.25
2022-12-26T19:05:24.082Z,102032.53
2022-12-26T19:10:23.585Z,102034.31
2022-12-26T19:15:21.393Z,102042.13
2022-12-26T19:20:21.452Z,102037.06
2022-12-26T19:25:20.257Z,102033.59
2022-12-26T19:30:19.148Z,102022.50
2022-12-26T19:35:17.109Z,102025.13
2022-12-26T19:40:22.929Z,102035.50
2022-12-26T19:45:21.510Z,102038.97
2022-12-26T19:50:19.340Z,102035.53
2022-12-26T19:55:18.772Z,102037.25
2022-12-26T20:00:16.829Z,102033.81
2022-12-26T20:05:14.767Z,102038.97
2022-12-26T20:10:12.684Z,102044.16
2022-12-26T20:15:12.200Z,102038.97
2022-12-26T20:20:10.502Z,102032.06
2022-12-26T20:25:09.921Z,102035.53
2022-12-26T20:30:09.458Z,102036.41
2022-12-26T20:35:09.488Z,102040.72
2022-12-26T20:40:07.897Z,102041.56
2022-12-26T20:45:06.217Z,102041.56
2022-12-26T20:50:04.053Z,102036.44
2022-12-26T20:55:03.455Z,102043.31
2022-12-26T21:00:01.379Z,102049.34
2022-12-26T21:05:00.686Z,102041.66
2022-12-26T21:09:58.565Z,102037.41
2022-12-26T21:14:57.840Z,102027.94
2022-12-26T21:19:55.663Z,102034.81
2022-12-26T21:24:53.472Z,102042.53
2022-12-26T21:29:51.310Z,102027.06
2022-12-26T21:34:50.606Z,102014.16
2022-12-26T21:39:49.724Z,102007.28
2022-12-26T21:44:47.633Z,102005.56
2022-12-26T21:49:45.634Z,102002.97
2022-12-26T21:55:02.406Z,101997.84
2022-12-26T22:00:00.939Z,101986.69
2022-12-26T22:04:59.156Z,101988.41
2022-12-26T22:09:58.330Z,101979.78
2022-12-26T22:14:56.183Z,101969.44
2022-12-26T22:19:54.416Z,101954.84
2022-12-26T22:24:52.289Z,101961.72
2022-12-26T22:29:54.832Z,101950.53
2022-12-26T22:34:52.701Z,101948.81
2022-12-26T22:39:50.528Z,101941.97
2022-12-26T22:44:48.374Z,101939.34
2022-12-26T22:49:48.496Z,101932.50
2022-12-26T22:54:46.615Z,101932.50
2022-12-26T23:00:11.410Z,101938.50
2022-12-26T23:05:07.644Z,101938.50
2022-12-26T23:10:06.065Z,101937.69
2022-12-26T23:15:04.129Z,101936.81
2022-12-26T23:20:22.286Z,101933.38
2022-12-26T23:25:21.680Z,101935.97
2022-12-26T23:30:19.544Z,101923.09
2022-12-26T23:35:17.615Z,101918.81
2022-12-26T23:40:16.552Z,101913.63
2022-12-26T23:45:16.050Z,101906.78
2022-12-26T23:50:14.882Z,101911.91
2022-12-26T23:55:12.883Z,101909.34
